sensor_id;sensor_type;location;lat;lon;timestamp;pressure;altitude;pressure_sealevel;temperature;humidity
35908;BME280;22003;50.320;8.054;2023-05-22T04:01:55;99379.03;;;11.88;100.00
35908;BME280;22003;50.320;8.054;2023-05-22T04:04:22;99380.03;;;12.36;100.00
35908;BME280;22003;50.320;8.054;2023-05-22T04:06:50;99351.22;;;12.02;100.00
35908;BME280;22003;50.320;8.054;2023-05-22T04:09:16;99378.78;;;12.11;100.00
35908;BME280;22003;50.320;8.054;2023-05-22T04:11:41;99376.78;;;12.03;100.00
35908;BME280;22003;50.320;8.054;2023-05-22T04:14:07;99388.13;;;12.25;100.00
35908;BME280;22003;50.320;8.054;2023-05-22T04:16:32;99368.44;;;12.18;100.00
35908;BME280;22003;50.320;8.054;2023-05-22T04:18:58;99377.22;;;12.08;100.00
35908;BME280;22003;50.320;8.054;2023-05-22T04:21:26;99384.09;;;12.30;100.00
35908;BME280;22003;50.320;8.054;2023-05-22T04:23:51;99380.03;;;12.26;100.00
35908;BME280;22003;50.320;8.054;2023-05-22T04:26:16;99377.94;;;12.30;100.00
35908;BME280;22003;50.320;8.054;2023-05-22T04:28:42;99383.25;;;12.39;100.00
35908;BME280;22003;50.320;8.054;2023-05-22T04:31:12;99394.28;;;12.83;100.00
35908;BME280;22003;50.320;8.054;2023-05-22T04:33:38;99368.88;;;13.08;100.00
35908;BME280;22003;50.320;8.054;2023-05-22T04:36:04;99393.53;;;13.01;100.00
35908;BME280;22003;50.320;8.054;2023-05-22T04:38:30;99393.63;;;13.28;100.00
35908;BME280;22003;50.320;8.054;2023-05-22T04:41:00;99390.97;;;13.28;100.00
35908;BME280;22003;50.320;8.054;2023-05-22T04:43:26;99402.94;;;13.42;100.00
35908;BME280;22003;50.320;8.054;2023-05-22T04:45:51;99408.72;;;13.65;100.00
35908;BME280;22003;50.320;8.054;2023-05-22T04:48:18;99408.50;;;14.04;100.00
35908;BME280;22003;50.320;8.054;2023-05-22T04:50:43;99406.69;;;13.77;100.00
35908;BME280;22003;50.320;8.054;2023-05-22T04:53:10;99416.16;;;14.16;100.00
35908;BME280;22003;50.320;8.054;2023-05-22T04:55:36;99418.69;;;14.36;100.00
35908;BME280;22003;50.320;8.054;2023-05-22T04:58:01;99406.25;;;14.26;100.00
35908;BME280;22003;50.320;8.054;2023-05-22T05:00:27;99424.19;;;14.52;100.00
35908;BME280;22003;50.320;8.054;2023-05-22T05:02:53;99421.97;;;14.65;100.00
35908;BME280;22003;50.320;8.054;2023-05-22T05:05:18;99418.75;;;14.79;100.00
35908;BME280;22003;50.320;8.054;2023-05-22T05:07:43;99417.97;;;14.87;100.00
35908;BME280;22003;50.320;8.054;2023-05-22T05:10:09;99411.19;;;14.93;100.00
35908;BME280;22003;50.320;8.054;2023-05-22T05:12:34;99418.66;;;15.33;100.00
35908;BME280;22003;50.320;8.054;2023-05-22T05:14:59;99407.97;;;15.33;100.00
35908;BME280;22003;50.320;8.054;2023-05-22T05:17:25;99424.47;;;15.37;100.00
35908;BME280;22003;50.320;8.054;2023-05-22T05:19:50;99418.22;;;15.72;100.00
35908;BME280;22003;50.320;8.054;2023-05-22T05:22:15;99424.03;;;15.67;100.00
35908;BME280;22003;50.320;8.054;2023-05-22T05:24:40;99417.16;;;16.07;99.97
35908;BME280;22003;50.320;8.054;2023-05-22T05:27:06;99428.50;;;16.09;99.62
35908;BME280;22003;50.320;8.054;2023-05-22T05:29:31;99425.09;;;16.49;97.92
35908;BME280;22003;50.320;8.054;2023-05-22T05:31:56;99429.25;;;16.35;97.66
35908;BME280;22003;50.320;8.054;2023-05-22T05:34:21;99412.38;;;16.51;98.62
35908;BME280;22003;50.320;8.054;2023-05-22T05:36:47;99415.91;;;16.44;98.99
35908;BME280;22003;50.320;8.054;2023-05-22T05:39:12;99432.84;;;16.85;97.23
35908;BME280;22003;50.320;8.054;2023-05-22T05:41:37;99430.31;;;16.92;95.01
35908;BME280;22003;50.320;8.054;2023-05-22T05:44:03;99422.94;;;16.61;95.55
35908;BME280;22003;50.320;8.054;2023-05-22T05:46:28;99427.31;;;16.95;93.94
35908;BME280;22003;50.320;8.054;2023-05-22T05:48:53;99426.78;;;17.07;96.64
35908;BME280;22003;50.320;8.054;2023-05-22T05:51:18;99429.78;;;17.04;95.80
35908;BME280;22003;50.320;8.054;2023-05-22T05:53:45;99426.66;;;16.84;96.09
35908;BME280;22003;50.320;8.054;2023-05-22T05:56:10;99432.31;;;16.98;96.02
35908;BME280;22003;50.320;8.054;2023-05-22T05:58:35;99433.25;;;17.46;93.61
35908;BME280;22003;50.320;8.054;2023-05-22T06:01:01;99415.47;;;17.53;94.18
35908;BME280;22003;50.320;8.054;2023-05-22T06:03:26;99443.28;;;17.52;94.18
35908;BME280;22003;50.320;8.054;2023-05-22T06:05:52;99438.09;;;18.06;92.03
35908;BME280;22003;50.320;8.054;2023-05-22T06:08:17;99421.16;;;17.66;93.09
35908;BME280;22003;50.320;8.054;2023-05-22T06:10:44;99441.69;;;17.90;94.03
35908;BME280;22003;50.320;8.054;2023-05-22T06:13:09;99436.50;;;17.88;91.80
35908;BME280;22003;50.320;8.054;2023-05-22T06:15:35;99433.06;;;18.03;95.99
35908;BME280;22003;50.320;8.054;2023-05-22T06:18:00;99426.13;;;18.16;93.38
35908;BME280;22003;50.320;8.054;2023-05-22T06:20:26;99435.03;;;18.40;94.58
35908;BME280;22003;50.320;8.054;2023-05-22T06:22:52;99434.97;;;18.79;92.89
35908;BME280;22003;50.320;8.054;2023-05-22T06:25:17;99446.34;;;19.19;89.27
35908;BME280;22003;50.320;8.054;2023-05-22T06:27:43;99437.78;;;19.38;88.90
35908;BME280;22003;50.320;8.054;2023-05-22T06:30:08;99446.84;;;19.52;90.96
35908;BME280;22003;50.320;8.054;2023-05-22T06:32:34;99424.47;;;19.89;87.54
35908;BME280;22003;50.320;8.054;2023-05-22T06:34:59;99432.06;;;19.86;85.50
35908;BME280;22003;50.320;8.054;2023-05-22T06:37:25;99439.22;;;19.26;89.28
35908;BME280;22003;50.320;8.054;2023-05-22T06:39:50;99435.28;;;19.81;88.77
35908;BME280;22003;50.320;8.054;2023-05-22T06:42:16;99434.06;;;19.54;87.36
35908;BME280;22003;50.320;8.054;2023-05-22T06:44:41;99433.56;;;19.21;90.34
35908;BME280;22003;50.320;8.054;2023-05-22T06:47:06;99411.28;;;19.35;91.84
35908;BME280;22003;50.320;8.054;2023-05-22T06:49:31;99423.97;;;20.00;88.25
35908;BME280;22003;50.320;8.054;2023-05-22T06:51:57;99423.78;;;20.38;86.12
35908;BME280;22003;50.320;8.054;2023-05-22T06:54:22;99432.94;;;20.22;85.43
35908;BME280;22003;50.320;8.054;2023-05-22T06:56:47;99436.66;;;20.79;84.87
35908;BME280;22003;50.320;8.054;2023-05-22T06:59:12;99423.41;;;20.41;84.86
35908;BME280;22003;50.320;8.054;2023-05-22T07:01:38;99433.69;;;20.16;86.56
35908;BME280;22003;50.320;8.054;2023-05-22T07:04:03;99437.69;;;20.06;90.62
35908;BME280;22003;50.320;8.054;2023-05-22T07:06:33;99423.38;;;20.20;88.06
35908;BME280;22003;50.320;8.054;2023-05-22T07:09:03;99446.19;;;20.24;89.48
35908;BME280;22003;50.320;8.054;2023-05-22T07:11:29;99432.56;;;20.83;85.89
35908;BME280;22003;50.320;8.054;2023-05-22T07:13:54;99448.81;;;20.96;86.07
35908;BME280;22003;50.320;8.054;2023-05-22T07:16:21;99446.81;;;21.05;85.05
35908;BME280;22003;50.320;8.054;2023-05-22T07:18:46;99441.88;;;20.87;88.00
35908;BME280;22003;50.320;8.054;2023-05-22T07:21:11;99442.22;;;20.77;86.69
35908;BME280;22003;50.320;8.054;2023-05-22T07:23:36;99409.53;;;19.87;90.13
35908;BME280;22003;50.320;8.054;2023-05-22T07:26:02;99448.06;;;20.09;91.35
35908;BME280;22003;50.320;8.054;2023-05-22T07:28:28;99440.56;;;20.55;89.40
35908;BME280;22003;50.320;8.054;2023-05-22T07:30:53;99438.94;;;20.24;90.94
35908;BME280;22003;50.320;8.054;2023-05-22T07:33:18;99459.13;;;20.35;91.75
35908;BME280;22003;50.320;8.054;2023-05-22T07:35:44;99442.31;;;20.12;91.04
35908;BME280;22003;50.320;8.054;2023-05-22T07:38:10;99444.72;;;20.07;92.81
35908;BME280;22003;50.320;8.054;2023-05-22T07:40:35;99440.50;;;19.83;88.34
35908;BME280;22003;50.320;8.054;2023-05-22T07:43:00;99423.78;;;19.87;92.00
35908;BME280;22003;50.320;8.054;2023-05-22T07:45:25;99432.72;;;19.88;86.04
35908;BME280;22003;50.320;8.054;2023-05-22T07:47:51;99441.31;;;19.98;87.11
35908;BME280;22003;50.320;8.054;2023-05-22T07:50:16;99440.94;;;20.37;85.82
35908;BME280;22003;50.320;8.054;2023-05-22T07:52:43;99431.44;;;20.99;82.85
35908;BME280;22003;50.320;8.054;2023-05-22T07:55:08;99437.16;;;20.68;87.74
35908;BME280;22003;50.320;8.054;2023-05-22T07:57:33;99445.13;;;20.54;87.24
35908;BME280;22003;50.320;8.054;2023-05-22T08:00:01;99454.72;;;20.64;85.91
35908;BME280;22003;50.320;8.054;2023-05-22T08:02:33;99436.97;;;20.91;87.89
35908;BME280;22003;50.320;8.054;2023-05-22T08:04:58;99440.53;;;20.76;84.78
35908;BME280;22003;50.320;8.054;2023-05-22T08:07:23;99444.00;;;20.92;84.95
35908;BME280;22003;50.320;8.054;2023-05-22T08:09:49;99445.75;;;21.27;81.53
35908;BME280;22003;50.320;8.054;2023-05-22T08:12:14;99440.47;;;20.70;81.51
35908;BME280;22003;50.320;8.054;2023-05-22T08:14:39;99445.03;;;20.69;86.55
35908;BME280;22003;50.320;8.054;2023-05-22T08:17:05;99425.63;;;20.52;85.72
35908;BME280;22003;50.320;8.054;2023-05-22T08:19:30;99440.31;;;20.71;82.34
35908;BME280;22003;50.320;8.054;2023-05-22T08:21:55;99442.13;;;20.71;85.03
35908;BME280;22003;50.320;8.054;2023-05-22T08:24:25;99431.72;;;20.61;81.01
35908;BME280;22003;50.320;8.054;2023-05-22T08:26:55;99443.94;;;20.85;79.95
35908;BME280;22003;50.320;8.054;2023-05-22T08:29:21;99437.91;;;21.04;78.07
35908;BME280;22003;50.320;8.054;2023-05-22T08:31:46;99433.69;;;20.95;77.73
35908;BME280;22003;50.320;8.054;2023-05-22T08:34:11;99435.03;;;21.06;78.39
35908;BME280;22003;50.320;8.054;2023-05-22T08:36:36;99438.34;;;21.08;79.20
35908;BME280;22003;50.320;8.054;2023-05-22T08:39:03;99442.56;;;21.17;82.94
35908;BME280;22003;50.320;8.054;2023-05-22T08:41:28;99431.59;;;21.47;78.85
35908;BME280;22003;50.320;8.054;2023-05-22T08:43:54;99428.50;;;21.22;77.73
35908;BME280;22003;50.320;8.054;2023-05-22T08:46:22;99435.56;;;21.23;79.46
35908;BME280;22003;50.320;8.054;2023-05-22T08:48:50;99429.09;;;21.39;79.63
35908;BME280;22003;50.320;8.054;2023-05-22T08:51:17;99438.13;;;22.00;73.92
35908;BME280;22003;50.320;8.054;2023-05-22T08:53:44;99432.16;;;21.35;78.51
35908;BME280;22003;50.320;8.054;2023-05-22T08:56:10;99433.44;;;21.40;76.77
35908;BME280;22003;50.320;8.054;2023-05-22T08:58:36;99435.69;;;21.36;78.11
35908;BME280;22003;50.320;8.054;2023-05-22T09:01:04;99438.56;;;21.63;81.07
35908;BME280;22003;50.320;8.054;2023-05-22T09:03:29;99434.81;;;21.64;78.22
35908;BME280;22003;50.320;8.054;2023-05-22T09:05:58;99426.59;;;21.72;78.07
35908;BME280;22003;50.320;8.054;2023-05-22T09:08:24;99429.72;;;22.17;82.11
35908;BME280;22003;50.320;8.054;2023-05-22T09:10:49;99436.78;;;22.18;81.48
35908;BME280;22003;50.320;8.054;2023-05-22T09:13:28;99433.69;;;22.27;81.55
35908;BME280;22003;50.320;8.054;2023-05-22T09:16:07;99425.84;;;22.39;78.90
35908;BME280;22003;50.320;8.054;2023-05-22T09:18:37;99415.00;;;22.26;82.03
35908;BME280;22003;50.320;8.054;2023-05-22T09:21:05;99425.69;;;22.67;82.45
35908;BME280;22003;50.320;8.054;2023-05-22T09:23:30;99418.78;;;22.45;78.15
35908;BME280;22003;50.320;8.054;2023-05-22T09:25:57;99413.56;;;22.36;82.08
35908;BME280;22003;50.320;8.054;2023-05-22T09:28:23;99422.16;;;22.66;77.68
35908;BME280;22003;50.320;8.054;2023-05-22T09:30:53;99426.31;;;23.49;79.65
35908;BME280;22003;50.320;8.054;2023-05-22T09:33:19;99406.81;;;23.13;76.36
35908;BME280;22003;50.320;8.054;2023-05-22T09:35:45;99418.84;;;23.44;76.60
35908;BME280;22003;50.320;8.054;2023-05-22T09:38:11;99413.06;;;23.27;73.74
35908;BME280;22003;50.320;8.054;2023-05-22T09:40:37;99407.75;;;24.23;72.75
35908;BME280;22003;50.320;8.054;2023-05-22T09:43:06;99405.84;;;23.86;71.54
35908;BME280;22003;50.320;8.054;2023-05-22T09:45:33;99405.09;;;24.17;75.47
35908;BME280;22003;50.320;8.054;2023-05-22T09:47:59;99413.06;;;23.27;75.34
35908;BME280;22003;50.320;8.054;2023-05-22T09:50:24;99417.13;;;23.69;76.13
35908;BME280;22003;50.320;8.054;2023-05-22T09:52:49;99401.19;;;24.06;72.81
35908;BME280;22003;50.320;8.054;2023-05-22T09:55:16;99413.25;;;23.19;73.93
35908;BME280;22003;50.320;8.054;2023-05-22T09:57:44;99408.06;;;22.91;75.35
35908;BME280;22003;50.320;8.054;2023-05-22T10:00:13;99425.69;;;22.87;75.07
35908;BME280;22003;50.320;8.054;2023-05-22T10:02:47;99413.25;;;22.92;73.33
35908;BME280;22003;50.320;8.054;2023-05-22T10:05:13;99419.69;;;23.18;75.93
35908;BME280;22003;50.320;8.054;2023-05-22T10:07:50;99415.75;;;22.87;75.60
35908;BME280;22003;50.320;8.054;2023-05-22T10:10:20;99419.47;;;22.93;75.65
35908;BME280;22003;50.320;8.054;2023-05-22T10:12:56;99415.78;;;22.94;73.38
35908;BME280;22003;50.320;8.054;2023-05-22T10:15:25;99419.91;;;23.03;74.52
35908;BME280;22003;50.320;8.054;2023-05-22T10:17:51;99428.84;;;23.04;76.86
35908;BME280;22003;50.320;8.054;2023-05-22T10:20:18;99422.41;;;23.11;76.52
35908;BME280;22003;50.320;8.054;2023-05-22T10:22:45;99405.53;;;22.70;74.49
35908;BME280;22003;50.320;8.054;2023-05-22T10:25:11;99411.78;;;22.83;73.67
35908;BME280;22003;50.320;8.054;2023-05-22T10:27:37;99416.38;;;22.96;74.65
35908;BME280;22003;50.320;8.054;2023-05-22T10:30:20;99409.31;;;22.88;73.81
35908;BME280;22003;50.320;8.054;2023-05-22T10:32:55;99397.91;;;23.00;74.68
35908;BME280;22003;50.320;8.054;2023-05-22T10:35:34;99414.72;;;23.22;78.20
35908;BME280;22003;50.320;8.054;2023-05-22T10:38:19;99395.59;;;23.23;77.94
35908;BME280;22003;50.320;8.054;2023-05-22T10:40:49;99391.34;;;23.54;73.17
35908;BME280;22003;50.320;8.054;2023-05-22T10:43:15;99389.31;;;23.36;75.25
35908;BME280;22003;50.320;8.054;2023-05-22T10:45:43;99397.66;;;23.14;74.05
35908;BME280;22003;50.320;8.054;2023-05-22T10:48:10;99381.88;;;22.72;72.79
35908;BME280;22003;50.320;8.054;2023-05-22T10:50:37;99387.09;;;23.00;73.07
35908;BME280;22003;50.320;8.054;2023-05-22T10:53:23;99388.50;;;23.35;74.11
35908;BME280;22003;50.320;8.054;2023-05-22T10:55:50;99389.72;;;23.39;72.88
35908;BME280;22003;50.320;8.054;2023-05-22T10:58:16;99378.09;;;23.26;70.23
35908;BME280;22003;50.320;8.054;2023-05-22T11:00:43;99376.38;;;23.64;73.08
35908;BME280;22003;50.320;8.054;2023-05-22T11:03:08;99387.88;;;23.98;71.73
35908;BME280;22003;50.320;8.054;2023-05-22T11:05:35;99361.28;;;24.33;65.57
35908;BME280;22003;50.320;8.054;2023-05-22T11:10:57;99375.19;;;25.43;66.37
35908;BME280;22003;50.320;8.054;2023-05-22T11:13:33;99387.06;;;24.99;70.51
35908;BME280;22003;50.320;8.054;2023-05-22T11:16:03;99379.19;;;25.96;65.36
35908;BME280;22003;50.320;8.054;2023-05-22T11:18:28;99380.66;;;24.93;70.05
35908;BME280;22003;50.320;8.054;2023-05-22T11:20:54;99381.00;;;24.47;70.81
35908;BME280;22003;50.320;8.054;2023-05-22T11:23:19;99375.00;;;24.32;72.71
35908;BME280;22003;50.320;8.054;2023-05-22T11:25:45;99372.69;;;24.42;71.44
35908;BME280;22003;50.320;8.054;2023-05-22T11:28:10;99372.63;;;24.48;73.48
35908;BME280;22003;50.320;8.054;2023-05-22T11:30:36;99362.50;;;24.44;71.35
35908;BME280;22003;50.320;8.054;2023-05-22T11:33:03;99375.91;;;24.57;72.33
35908;BME280;22003;50.320;8.054;2023-05-22T11:35:28;99363.50;;;24.74;71.47
35908;BME280;22003;50.320;8.054;2023-05-22T11:37:54;99355.59;;;24.10;74.09
35908;BME280;22003;50.320;8.054;2023-05-22T11:40:22;99341.69;;;24.31;69.88
35908;BME280;22003;50.320;8.054;2023-05-22T11:42:51;99370.06;;;24.60;70.39
35908;BME280;22003;50.320;8.054;2023-05-22T11:45:17;99358.84;;;24.57;74.40
35908;BME280;22003;50.320;8.054;2023-05-22T11:47:43;99352.66;;;24.99;69.03
35908;BME280;22003;50.320;8.054;2023-05-22T11:50:10;99349.19;;;25.36;68.54
35908;BME280;22003;50.320;8.054;2023-05-22T11:52:37;99351.66;;;24.94;68.83
35908;BME280;22003;50.320;8.054;2023-05-22T11:55:03;99338.69;;;24.78;69.27
35908;BME280;22003;50.320;8.054;2023-05-22T11:57:32;99354.09;;;25.27;72.18
35908;BME280;22003;50.320;8.054;2023-05-22T11:59:59;99321.41;;;25.22;67.10
35908;BME280;22003;50.320;8.054;2023-05-22T12:02:24;99343.59;;;25.12;68.27
35908;BME280;22003;50.320;8.054;2023-05-22T12:04:53;99331.34;;;25.03;67.32
35908;BME280;22003;50.320;8.054;2023-05-22T12:07:20;99343.91;;;24.47;68.84
35908;BME280;22003;50.320;8.054;2023-05-22T12:09:46;99332.94;;;24.36;73.06
35908;BME280;22003;50.320;8.054;2023-05-22T12:12:11;99330.22;;;24.67;69.17
35908;BME280;22003;50.320;8.054;2023-05-22T12:14:37;99317.63;;;25.41;66.90
35908;BME280;22003;50.320;8.054;2023-05-22T12:17:02;99328.53;;;25.71;66.02
35908;BME280;22003;50.320;8.054;2023-05-22T12:19:30;99320.66;;;25.33;69.74
35908;BME280;22003;50.320;8.054;2023-05-22T12:21:57;99327.56;;;25.47;69.26
35908;BME280;22003;50.320;8.054;2023-05-22T12:24:22;99335.13;;;26.12;72.22
35908;BME280;22003;50.320;8.054;2023-05-22T12:26:49;99323.97;;;26.02;64.05
35908;BME280;22003;50.320;8.054;2023-05-22T12:29:15;99322.88;;;25.91;68.36
35908;BME280;22003;50.320;8.054;2023-05-22T12:31:43;99323.25;;;25.58;67.91
35908;BME280;22003;50.320;8.054;2023-05-22T12:34:08;99313.72;;;25.74;65.16
35908;BME280;22003;50.320;8.054;2023-05-22T12:36:36;99314.31;;;25.76;66.02
35908;BME280;22003;50.320;8.054;2023-05-22T12:39:06;99332.34;;;26.00;69.09
35908;BME280;22003;50.320;8.054;2023-05-22T12:41:32;99289.13;;;25.69;66.69
35908;BME280;22003;50.320;8.054;2023-05-22T12:43:57;99319.44;;;25.66;68.67
35908;BME280;22003;50.320;8.054;2023-05-22T12:46:22;99301.69;;;25.82;68.42
35908;BME280;22003;50.320;8.054;2023-05-22T12:48:48;99299.47;;;26.20;70.79
35908;BME280;22003;50.320;8.054;2023-05-22T12:51:13;99308.97;;;25.51;66.01
35908;BME280;22003;50.320;8.054;2023-05-22T12:53:38;99306.69;;;25.48;67.11
35908;BME280;22003;50.320;8.054;2023-05-22T12:56:04;99306.25;;;25.51;69.11
35908;BME280;22003;50.320;8.054;2023-05-22T12:58:29;99303.97;;;25.48;67.90
35908;BME280;22003;50.320;8.054;2023-05-22T13:00:55;99292.47;;;25.34;69.84
35908;BME280;22003;50.320;8.054;2023-05-22T13:03:20;99305.34;;;25.39;67.94
35908;BME280;22003;50.320;8.054;2023-05-22T13:05:46;99302.81;;;25.44;67.62
35908;BME280;22003;50.320;8.054;2023-05-22T13:08:11;99307.16;;;25.45;65.95
35908;BME280;22003;50.320;8.054;2023-05-22T13:10:36;99308.06;;;25.39;68.40
35908;BME280;22003;50.320;8.054;2023-05-22T13:13:02;99305.72;;;25.79;68.31
35908;BME280;22003;50.320;8.054;2023-05-22T13:15:27;99305.78;;;25.54;66.60
35908;BME280;22003;50.320;8.054;2023-05-22T13:17:54;99298.06;;;25.69;65.73
35908;BME280;22003;50.320;8.054;2023-05-22T13:20:19;99311.44;;;25.71;66.87
35908;BME280;22003;50.320;8.054;2023-05-22T13:22:44;99310.72;;;26.24;68.26
35908;BME280;22003;50.320;8.054;2023-05-22T13:25:10;99311.03;;;26.46;66.77
35908;BME280;22003;50.320;8.054;2023-05-22T13:27:36;99313.41;;;25.45;68.47
35908;BME280;22003;50.320;8.054;2023-05-22T13:30:01;99309.59;;;24.41;69.51
35908;BME280;22003;50.320;8.054;2023-05-22T13:32:27;99312.34;;;24.35;69.04
35908;BME280;22003;50.320;8.054;2023-05-22T13:34:52;99316.50;;;25.12;70.18
35908;BME280;22003;50.320;8.054;2023-05-22T13:37:18;99297.34;;;25.25;67.30
35908;BME280;22003;50.320;8.054;2023-05-22T13:39:43;99321.09;;;25.30;67.78
35908;BME280;22003;50.320;8.054;2023-05-22T13:42:08;99306.22;;;25.69;69.61
35908;BME280;22003;50.320;8.054;2023-05-22T13:44:33;99299.84;;;25.09;66.64
35908;BME280;22003;50.320;8.054;2023-05-22T13:46:59;99303.59;;;25.26;65.83
35908;BME280;22003;50.320;8.054;2023-05-22T13:49:24;99314.41;;;24.89;69.16
35908;BME280;22003;50.320;8.054;2023-05-22T13:51:49;99316.78;;;24.54;69.44
35908;BME280;22003;50.320;8.054;2023-05-22T13:54:15;99310.03;;;24.63;69.48
35908;BME280;22003;50.320;8.054;2023-05-22T13:56:40;99314.31;;;24.96;71.09
35908;BME280;22003;50.320;8.054;2023-05-22T13:59:05;99305.59;;;24.94;70.30
35908;BME280;22003;50.320;8.054;2023-05-22T14:01:31;99309.41;;;25.30;68.67
35908;BME280;22003;50.320;8.054;2023-05-22T14:03:56;99305.72;;;24.56;67.45
35908;BME280;22003;50.320;8.054;2023-05-22T14:06:21;99283.88;;;25.37;67.70
35908;BME280;22003;50.320;8.054;2023-05-22T14:08:47;99304.44;;;26.12;65.73
35908;BME280;22003;50.320;8.054;2023-05-22T14:11:12;99288.50;;;26.57;65.34
35908;BME280;22003;50.320;8.054;2023-05-22T14:13:38;99285.59;;;27.46;63.13
35908;BME280;22003;50.320;8.054;2023-05-22T14:16:03;99295.50;;;26.35;68.08
35908;BME280;22003;50.320;8.054;2023-05-22T14:18:30;99284.59;;;27.23;63.50
35908;BME280;22003;50.320;8.054;2023-05-22T14:20:55;99284.69;;;27.40;63.92
35908;BME280;22003;50.320;8.054;2023-05-22T14:23:20;99277.28;;;27.93;63.70
35908;BME280;22003;50.320;8.054;2023-05-22T14:25:46;99278.09;;;27.76;61.77
35908;BME280;22003;50.320;8.054;2023-05-22T14:28:12;99287.59;;;27.10;65.70
35908;BME280;22003;50.320;8.054;2023-05-22T14:30:37;99280.78;;;27.36;64.84
35908;BME280;22003;50.320;8.054;2023-05-22T14:33:03;99298.13;;;25.99;69.42
35908;BME280;22003;50.320;8.054;2023-05-22T14:35:29;99283.41;;;25.77;69.90
35908;BME280;22003;50.320;8.054;2023-05-22T14:37:55;99301.19;;;25.73;69.64
35908;BME280;22003;50.320;8.054;2023-05-22T14:40:20;99290.00;;;25.33;70.53
35908;BME280;22003;50.320;8.054;2023-05-22T14:42:45;99299.75;;;26.30;68.09
35908;BME280;22003;50.320;8.054;2023-05-22T14:45:11;99289.50;;;26.02;68.04
35908;BME280;22003;50.320;8.054;2023-05-22T14:47:36;99281.38;;;26.02;67.74
35908;BME280;22003;50.320;8.054;2023-05-22T14:50:02;99301.81;;;26.58;67.32
35908;BME280;22003;50.320;8.054;2023-05-22T14:52:27;99296.78;;;26.74;65.62
35908;BME280;22003;50.320;8.054;2023-05-22T14:54:52;99299.25;;;25.43;68.60
35908;BME280;22003;50.320;8.054;2023-05-22T14:57:18;99305.41;;;26.29;66.76
35908;BME280;22003;50.320;8.054;2023-05-22T14:59:43;99285.66;;;26.75;65.02
35908;BME280;22003;50.320;8.054;2023-05-22T15:02:09;99298.63;;;26.08;68.32
35908;BME280;22003;50.320;8.054;2023-05-22T15:04:34;99306.84;;;25.35;68.55
35908;BME280;22003;50.320;8.054;2023-05-22T15:06:59;99302.06;;;24.68;70.41
35908;BME280;22003;50.320;8.054;2023-05-22T15:09:25;99282.75;;;25.08;71.29
35908;BME280;22003;50.320;8.054;2023-05-22T15:11:50;99298.16;;;26.11;68.95
35908;BME280;22003;50.320;8.054;2023-05-22T15:14:16;99300.34;;;25.91;67.54
35908;BME280;22003;50.320;8.054;2023-05-22T15:16:41;99297.75;;;25.96;68.94
35908;BME280;22003;50.320;8.054;2023-05-22T15:19:06;99318.00;;;25.63;68.61
35908;BME280;22003;50.320;8.054;2023-05-22T15:21:33;99319.19;;;25.31;68.41
35908;BME280;22003;50.320;8.054;2023-05-22T15:23:58;99330.06;;;25.49;68.54
35908;BME280;22003;50.320;8.054;2023-05-22T15:26:23;99311.06;;;25.86;69.06
35908;BME280;22003;50.320;8.054;2023-05-22T15:28:49;99303.84;;;25.61;69.21
35908;BME280;22003;50.320;8.054;2023-05-22T15:31:14;99318.22;;;25.80;68.57
35908;BME280;22003;50.320;8.054;2023-05-22T15:33:39;99317.19;;;25.44;68.08
35908;BME280;22003;50.320;8.054;2023-05-22T15:36:05;99317.44;;;24.74;70.58
35908;BME280;22003;50.320;8.054;2023-05-22T15:38:30;99317.59;;;24.80;71.95
35908;BME280;22003;50.320;8.054;2023-05-22T15:40:56;99304.53;;;24.77;71.80
35908;BME280;22003;50.320;8.054;2023-05-22T15:43:21;99315.09;;;25.03;71.32
35908;BME280;22003;50.320;8.054;2023-05-22T15:45:46;99297.94;;;24.66;72.31
35908;BME280;22003;50.320;8.054;2023-05-22T15:48:15;99315.03;;;24.66;72.96
35908;BME280;22003;50.320;8.054;2023-05-22T15:50:40;99312.63;;;23.88;75.37
35908;BME280;22003;50.320;8.054;2023-05-22T15:53:06;99311.88;;;23.68;73.41
35908;BME280;22003;50.320;8.054;2023-05-22T15:55:31;99294.97;;;23.21;75.46
35908;BME280;22003;50.320;8.054;2023-05-22T15:57:58;99290.47;;;23.53;75.21
35908;BME280;22003;50.320;8.054;2023-05-22T16:00:25;99305.94;;;23.91;74.81
35908;BME280;22003;50.320;8.054;2023-05-22T16:02:50;99299.91;;;23.31;76.31
35908;BME280;22003;50.320;8.054;2023-05-22T16:05:16;99294.88;;;23.48;76.91
35908;BME280;22003;50.320;8.054;2023-05-22T16:07:41;99311.44;;;24.09;74.00
35908;BME280;22003;50.320;8.054;2023-05-22T16:10:07;99307.59;;;24.23;73.44
35908;BME280;22003;50.320;8.054;2023-05-22T16:12:33;99306.03;;;24.09;72.65
35908;BME280;22003;50.320;8.054;2023-05-22T16:14:58;99286.31;;;24.34;71.69
35908;BME280;22003;50.320;8.054;2023-05-22T16:17:23;99307.72;;;24.10;72.37
35908;BME280;22003;50.320;8.054;2023-05-22T16:19:48;99296.81;;;23.85;74.54
35908;BME280;22003;50.320;8.054;2023-05-22T16:22:15;99293.00;;;24.00;72.82
35908;BME280;22003;50.320;8.054;2023-05-22T16:24:40;99309.41;;;23.66;73.50
35908;BME280;22003;50.320;8.054;2023-05-22T16:27:06;99311.59;;;23.83;75.59
35908;BME280;22003;50.320;8.054;2023-05-22T16:29:31;99313.81;;;23.92;72.44
35908;BME280;22003;50.320;8.054;2023-05-22T16:31:56;99319.81;;;24.01;72.65
35908;BME280;22003;50.320;8.054;2023-05-22T16:34:21;99311.63;;;23.76;73.19
35908;BME280;22003;50.320;8.054;2023-05-22T16:36:47;99336.16;;;23.16;75.13
35908;BME280;22003;50.320;8.054;2023-05-22T16:39:12;99343.22;;;23.17;76.02
35908;BME280;22003;50.320;8.054;2023-05-22T16:41:37;99331.97;;;23.21;76.33
35908;BME280;22003;50.320;8.054;2023-05-22T16:44:02;99342.81;;;23.01;77.38
35908;BME280;22003;50.320;8.054;2023-05-22T16:46:28;99336.56;;;22.87;76.94
35908;BME280;22003;50.320;8.054;2023-05-22T16:48:53;99346.31;;;23.14;76.40
35908;BME280;22003;50.320;8.054;2023-05-22T16:51:18;99341.56;;;22.77;78.20
35908;BME280;22003;50.320;8.054;2023-05-22T16:53:43;99349.06;;;22.95;78.50
35908;BME280;22003;50.320;8.054;2023-05-22T16:56:10;99347.81;;;22.77;77.70
35908;BME280;22003;50.320;8.054;2023-05-22T16:58:37;99353.19;;;22.57;76.83